Time;durP1;ratioP1;P1;durP2;ratioP2;P2;SDS_P1;SDS_P2;PMS_P1;PMS_P2;Temp;Humidity;BMP_temperature;BMP_pressure;BME280_temperature;BME280_humidity;BME280_pressure;Samples;Min_cycle;Max_cycle;Signal;HPM_P1;HPM_P2
2022/04/20 00:00:35;;;;;;;10.82;5.60;;;;;;;18.27;42.88;101482.66;5073811;28;20045;-53
2022/04/20 00:03:02;;;;;;;14.85;6.50;;;;;;;18.23;43.15;101493.13;5086833;28;20099;-50
2022/04/20 00:05:33;;;;;;;16.98;6.78;;;;;;;18.08;43.65;101492.72;5077115;28;20033;-51
2022/04/20 00:08:02;;;;;;;16.08;6.43;;;;;;;18.15;43.73;101493.47;5089419;28;20064;-53
2022/04/20 00:10:28;;;;;;;14.80;6.50;;;;;;;17.98;44.05;101487.81;5082319;28;20036;-52
2022/04/20 00:12:54;;;;;;;16.45;6.65;;;;;;;18.12;43.94;101491.22;5081257;28;20055;-52
2022/04/20 00:15:20;;;;;;;14.10;6.97;;;;;;;18.05;44.23;101491.31;5060474;28;20053;-53
2022/04/20 00:17:45;;;;;;;14.83;6.40;;;;;;;17.90;44.56;101486.28;5089434;28;20032;-50
2022/04/20 00:20:11;;;;;;;17.83;6.83;;;;;;;17.98;44.74;101488.66;5073711;28;20059;-55
2022/04/20 00:22:36;;;;;;;12.30;6.28;;;;;;;17.65;45.72;101491.78;5083565;28;20041;-51
2022/04/20 00:25:02;;;;;;;12.53;6.80;;;;;;;17.89;45.23;101490.03;5079947;28;20041;-54
2022/04/20 00:27:32;;;;;;;15.82;6.63;;;;;;;17.88;45.11;101486.50;5090182;28;20032;-50
2022/04/20 00:29:57;;;;;;;15.07;7.45;;;;;;;17.76;45.57;101482.91;5078482;28;20058;-48
2022/04/20 00:32:23;;;;;;;15.93;6.90;;;;;;;17.71;45.79;101486.31;5089054;28;20037;-49
2022/04/20 00:34:49;;;;;;;15.95;7.50;;;;;;;17.37;46.71;101483.16;5077534;28;20043;-52
2022/04/20 00:37:14;;;;;;;21.87;8.00;;;;;;;17.51;46.30;101483.03;5092606;28;20036;-53
2022/04/20 00:39:40;;;;;;;14.43;6.93;;;;;;;17.60;46.32;101479.78;5078997;28;20040;-54
2022/04/20 00:42:05;;;;;;;13.88;7.35;;;;;;;17.61;46.24;101481.44;5083164;28;20028;-52
2022/04/20 00:44:31;;;;;;;14.65;7.18;;;;;;;17.59;46.36;101478.13;5088165;28;20115;-51
2022/04/20 00:46:59;;;;;;;14.68;6.85;;;;;;;17.54;46.34;101482.56;5089541;28;20051;-53
2022/04/20 00:49:26;;;;;;;14.52;7.18;;;;;;;17.51;46.48;101474.91;5079114;28;20063;-49
2022/04/20 00:51:59;;;;;;;13.95;6.63;;;;;;;17.49;46.48;101484.06;5094126;28;20039;-52
2022/04/20 00:54:27;;;;;;;13.52;6.30;;;;;;;17.43;46.59;101478.72;5088991;28;20050;-52
2022/04/20 00:56:53;;;;;;;13.55;7.15;;;;;;;17.27;46.56;101483.69;5088130;28;20043;-48
2022/04/20 00:59:22;;;;;;;13.85;6.88;;;;;;;17.26;46.62;101476.63;5081754;28;20029;-53
2022/04/20 01:01:48;;;;;;;16.70;5.93;;;;;;;17.37;46.19;101480.47;5079208;28;20071;-51
2022/04/20 01:04:15;;;;;;;12.48;6.30;;;;;;;17.18;46.42;101487.75;5091076;28;20048;-52
2022/04/20 01:07:00;;;;;;;16.25;6.47;;;;;;;17.17;45.91;101486.09;5089945;28;20123;-53
2022/04/20 01:09:45;;;;;;;15.75;6.20;;;;;;;19.09;42.15;101488.41;5080916;28;20040;-50
2022/04/20 01:12:29;;;;;;;9.80;5.70;;;;;;;17.51;44.30;101483.81;5088100;28;20040;-50
2022/04/20 01:15:10;;;;;;;13.30;5.30;;;;;;;17.38;44.49;101481.28;5090543;28;20029;-50
2022/04/20 01:18:12;;;;;;;12.73;5.90;;;;;;;17.20;44.67;101485.63;5089447;28;20079;-49
2022/04/20 01:20:46;;;;;;;9.52;5.38;;;;;;;16.95;45.19;101489.19;5086271;28;20268;-52
2022/04/20 01:23:24;;;;;;;16.77;6.40;;;;;;;17.22;44.77;101485.44;5091799;28;20029;-54
2022/04/20 01:26:12;;;;;;;13.40;5.90;;;;;;;17.14;44.88;101478.44;5077328;28;20043;-53
2022/04/20 01:28:53;;;;;;;13.35;6.20;;;;;;;17.14;45.05;101478.44;5084459;28;20037;-51
2022/04/20 01:31:41;;;;;;;14.77;6.00;;;;;;;17.19;44.82;101484.00;5078223;28;20135;-50
2022/04/20 01:34:12;;;;;;;11.13;5.78;;;;;;;17.06;44.81;101480.34;5090352;28;20025;-51
2022/04/20 01:36:37;;;;;;;13.80;5.90;;;;;;;16.95;45.26;101486.47;5085796;28;20056;-51
2022/04/20 01:39:02;;;;;;;12.73;6.13;;;;;;;16.84;45.36;101492.59;5083468;28;20052;-54
2022/04/20 01:41:28;;;;;;;13.60;6.73;;;;;;;16.66;45.91;101488.81;5075703;28;20029;-54
2022/04/20 01:43:53;;;;;;;13.97;6.30;;;;;;;16.58;46.19;101494.47;5092547;28;20028;-52
2022/04/20 01:46:25;;;;;;;11.80;5.97;;;;;;;16.67;46.15;101490.47;5084479;28;20028;-48
2022/04/20 01:49:09;;;;;;;10.77;6.40;;;;;;;17.85;44.62;101476.13;5083072;28;20044;-52
2022/04/20 01:51:51;;;;;;;12.30;6.00;;;;;;;16.61;46.44;101494.88;5092455;28;20032;-52
2022/04/20 01:54:33;;;;;;;12.90;6.38;;;;;;;16.61;46.44;101486.75;5084576;28;20036;-53
2022/04/20 01:57:12;;;;;;;13.45;5.93;;;;;;;16.44;46.86;101494.59;5082201;28;20029;-50
2022/04/20 01:59:56;;;;;;;13.50;6.07;;;;;;;16.41;46.86;101494.19;5075027;28;20037;-54
2022/04/20 02:02:40;;;;;;;15.82;6.32;;;;;;;16.39;47.13;101494.41;5086145;28;20037;-55
2022/04/20 02:05:31;;;;;;;11.98;6.22;;;;;;;16.41;46.86;101494.19;5079405;28;20051;-54
2022/04/20 02:08:26;;;;;;;11.77;5.82;;;;;;;16.27;47.13;101498.84;5087751;28;20098;-51
2022/04/20 02:11:17;;;;;;;9.77;5.47;;;;;;;16.16;47.57;101501.22;5090198;28;20040;-51
2022/04/20 02:13:43;;;;;;;13.38;5.30;;;;;;;16.27;47.25;101501.56;5078770;28;20104;-51
2022/04/20 02:16:10;;;;;;;13.05;6.55;;;;;;;16.12;47.44;101497.25;5089696;28;20033;-52
2022/04/20 02:19:11;;;;;;;11.77;6.40;;;;;;;16.05;47.49;101496.47;5089855;28;20058;-54
2022/04/20 02:21:43;;;;;;;13.40;6.25;;;;;;;16.06;47.61;101500.84;5078368;28;20030;-54
2022/04/20 02:24:10;;;;;;;12.20;5.28;;;;;;;15.94;47.81;101497.19;5093293;28;20043;-53
2022/04/20 02:26:36;;;;;;;13.73;6.40;;;;;;;15.91;47.56;101493.88;5086256;28;20072;-54
2022/04/20 02:29:02;;;;;;;9.05;5.80;;;;;;;15.91;47.65;101496.56;5088555;28;20078;-53
2022/04/20 02:31:28;;;;;;;10.38;5.60;;;;;;;15.86;47.63;101493.63;5079137;28;20033;-52
2022/04/20 02:33:53;;;;;;;9.98;5.43;;;;;;;15.82;47.68;101497.00;5088565;28;20032;-54
2022/04/20 02:36:19;;;;;;;10.53;5.37;;;;;;;15.79;47.64;101492.84;5068892;28;20047;-50
2022/04/20 02:38:46;;;;;;;18.27;5.75;;;;;;;15.65;47.93;101492.09;5060029;28;20033;-54
2022/04/20 02:41:12;;;;;;;10.25;5.13;;;;;;;15.66;48.08;101498.28;5061418;28;20033;-52
2022/04/20 02:43:37;;;;;;;14.02;5.65;;;;;;;15.68;47.91;101496.19;5066892;28;20038;-54
2022/04/20 02:46:04;;;;;;;13.03;5.20;;;;;;;15.73;47.74;101499.09;5069081;28;20029;-51
2022/04/20 02:48:29;;;;;;;10.80;5.32;;;;;;;15.56;48.21;101507.66;5061067;28;20055;-50
2022/04/20 02:50:55;;;;;;;12.35;5.50;;;;;;;15.65;47.95;101504.72;5065282;28;20037;-51
2022/04/20 02:53:22;;;;;;;11.15;5.32;;;;;;;15.58;48.14;101508.28;5064238;28;20025;-51
2022/04/20 02:55:47;;;;;;;10.80;6.33;;;;;;;15.50;48.19;101508.53;5065117;28;20041;-53
2022/04/20 02:58:13;;;;;;;11.63;5.20;;;;;;;15.52;48.18;101503.75;5064738;28;20060;-51
2022/04/20 03:00:45;;;;;;;13.55;5.05;;;;;;;15.37;48.50;101511.25;5063288;28;20064;-51
2022/04/20 03:03:34;;;;;;;11.75;4.85;;;;;;;15.37;48.59;101508.53;5059493;28;20126;-52
2022/04/20 03:06:14;;;;;;;9.43;4.75;;;;;;;15.39;48.64;101509.16;5073674;28;20036;-49
2022/04/20 03:08:41;;;;;;;10.15;5.00;;;;;;;15.42;48.58;101506.88;5084766;28;20120;-54
2022/04/20 03:11:10;;;;;;;13.43;5.50;;;;;;;15.39;48.75;101511.84;5087673;28;20032;-54
2022/04/20 03:13:36;;;;;;;13.43;5.43;;;;;;;15.38;48.64;101507.50;5077848;28;20063;-52
2022/04/20 03:16:02;;;;;;;9.90;5.15;;;;;;;15.31;48.80;101512.91;5089650;28;20044;-51
2022/04/20 03:18:32;;;;;;;11.02;5.28;;;;;;;15.30;49.57;101508.56;5073583;28;20051;-51
2022/04/20 03:21:04;;;;;;;12.02;6.45;;;;;;;15.36;48.66;101512.28;5073811;28;20044;-52
2022/04/20 03:23:30;;;;;;;9.65;4.95;;;;;;;15.36;48.46;101509.59;5089927;28;20036;-50
2022/04/20 03:26:01;;;;;;;11.23;5.32;;;;;;;15.39;48.13;101511.84;5077516;28;20032;-51
2022/04/20 03:28:48;;;;;;;10.40;5.03;;;;;;;15.30;48.21;101514.78;5083212;28;20117;-51
2022/04/20 03:31:14;;;;;;;10.02;5.22;;;;;;;15.29;48.04;101515.81;5087779;28;20277;-52
2022/04/20 03:33:41;;;;;;;9.23;5.35;;;;;;;15.24;47.72;101517.47;5060339;28;20032;-55
2022/04/20 03:36:06;;;;;;;10.55;4.75;;;;;;;15.27;47.66;101517.91;5090004;28;20029;-51
2022/04/20 03:38:32;;;;;;;7.37;4.23;;;;;;;15.30;47.55;101522.03;5081905;28;20047;-53
2022/04/20 03:40:57;;;;;;;8.43;5.22;;;;;;;15.25;47.64;101525.38;5081837;28;20041;-50
2022/04/20 03:43:23;;;;;;;8.67;4.70;;;;;;;15.08;48.01;101524.94;5088901;28;20032;-49
2022/04/20 03:45:50;;;;;;;11.05;4.57;;;;;;;15.13;47.99;101524.34;5077397;28;20051;-52
2022/04/20 03:48:16;;;;;;;8.02;4.90;;;;;;;15.04;48.21;101526.41;5088043;28;20442;-52
2022/04/20 03:50:42;;;;;;;10.40;4.85;;;;;;;15.03;48.51;101528.28;5083739;28;20105;-52
2022/04/20 03:53:08;;;;;;;11.82;5.20;;;;;;;15.16;48.15;101526.59;5079904;28;20037;-51
2022/04/20 03:55:34;;;;;;;10.43;4.55;;;;;;;15.08;48.67;101530.34;5089693;28;20518;-52
2022/04/20 03:57:59;;;;;;;7.97;4.45;;;;;;;15.03;48.67;101538.22;5073299;28;20040;-54
2022/04/20 04:00:25;;;;;;;10.43;4.10;;;;;;;15.00;48.90;101528.72;5072854;28;20041;-50
2022/04/20 04:02:53;;;;;;;7.55;4.40;;;;;;;14.85;49.23;101526.22;5083990;28;20295;-51
2022/04/20 04:05:28;;;;;;;12.15;4.47;;;;;;;14.85;49.40;101530.78;5076578;28;20056;-52
2022/04/20 04:07:59;;;;;;;9.18;4.38;;;;;;;14.87;49.22;101526.81;5060346;28;20039;-50
2022/04/20 04:10:31;;;;;;;9.20;4.35;;;;;;;14.77;49.36;101529.97;5085417;28;20037;-52
2022/04/20 04:12:57;;;;;;;10.18;4.53;;;;;;;14.69;49.78;101535.50;5084621;28;20226;-51
2022/04/20 04:15:24;;;;;;;;;;;;;;;14.69;49.76;101532.81;5088446;28;20061;-53
2022/04/20 04:17:56;;;;;;;8.98;4.97;;;;;;;14.83;49.22;101532.84;5076133;28;19913;-53
2022/04/20 04:20:29;;;;;;;10.65;4.55;;;;;;;14.81;49.31;101532.25;5086109;28;20033;-52
2022/04/20 04:22:55;;;;;;;7.60;4.10;;;;;;;14.73;49.38;101539.47;5084187;28;20033;-50
2022/04/20 04:25:41;;;;;;;9.77;4.50;;;;;;;14.58;49.93;101549.56;5076207;28;20052;-54
2022/04/20 04:28:09;;;;;;;8.85;3.83;;;;;;;14.46;50.15;101542.09;5088535;28;20028;-52
2022/04/20 04:30:38;;;;;;;9.43;4.60;;;;;;;16.29;46.10;101548.03;5081840;28;20033;-53
2022/04/20 04:33:04;;;;;;;8.95;4.70;;;;;;;16.23;46.05;101547.03;5080475;28;20033;-49
2022/04/20 04:35:31;;;;;;;7.60;4.05;;;;;;;16.66;44.49;101556.31;5089043;28;20036;-54
2022/04/20 04:37:57;;;;;;;12.20;4.00;;;;;;;16.72;44.06;101558.16;5076203;28;20055;-52
2022/04/20 04:40:26;;;;;;;7.40;4.40;;;;;;;15.47;45.56;101550.19;5085839;28;20020;-54
2022/04/20 04:42:52;;;;;;;10.10;4.50;;;;;;;16.17;45.27;101551.44;5083675;28;20054;-51
2022/04/20 04:50:55;;;;;;;7.28;4.15;;;;;;;16.61;43.44;101561.56;5081498;28;20096;-51
2022/04/20 04:53:21;;;;;;;12.60;4.47;;;;;;;16.70;43.16;101571.03;5071331;28;20063;-54
2022/04/20 04:55:47;;;;;;;11.65;4.53;;;;;;;16.75;43.10;101576.59;5088666;28;20288;-56
2022/04/20 04:58:13;;;;;;;7.53;4.17;;;;;;;14.83;46.87;101565.97;5072447;28;20036;-55
2022/04/20 05:00:40;;;;;;;10.32;3.85;;;;;;;14.61;47.68;101568.81;5072103;28;20043;-54
2022/04/20 05:03:17;;;;;;;7.53;4.25;;;;;;;14.47;48.64;101567.97;5086307;28;20056;-53
2022/04/20 05:05:45;;;;;;;11.15;4.35;;;;;;;14.52;48.60;101564.69;5075827;28;20037;-55
2022/04/20 05:08:12;;;;;;;8.50;3.92;;;;;;;14.60;48.76;101566.34;5087693;28;20025;-54
2022/04/20 05:10:38;;;;;;;10.63;4.22;;;;;;;14.51;49.23;101570.25;5073363;28;20031;-54
2022/04/20 05:13:06;;;;;;;7.03;3.70;;;;;;;14.49;49.06;101571.28;5084876;28;20036;-54
2022/04/20 05:15:32;;;;;;;;;;;;;;;14.51;49.29;101575.63;5077931;28;20426;-53
2022/04/20 05:17:58;;;;;;;9.70;3.90;;;;;;;14.58;49.18;101584.56;5093623;28;19913;-53
2022/04/20 05:20:23;;;;;;;8.27;3.97;;;;;;;14.61;49.26;101586.84;5076159;28;20087;-52
2022/04/20 05:22:49;;;;;;;9.98;3.60;;;;;;;14.57;49.26;101589.09;5086111;28;20348;-52
2022/04/20 05:25:16;;;;;;;;;;;;;;;14.55;49.43;101588.47;5083548;28;20044;-50
2022/04/20 05:27:42;;;;;;;8.65;3.97;;;;;;;14.67;49.01;101591.41;5092418;28;19999;-52
2022/04/20 05:30:15;;;;;;;7.93;4.35;;;;;;;16.33;45.92;101593.28;5080848;28;20043;-53
2022/04/20 05:32:43;;;;;;;13.23;4.70;;;;;;;16.67;44.23;101589.53;5086817;28;20039;-52
2022/04/20 05:35:17;;;;;;;10.38;4.45;;;;;;;16.87;44.16;101595.63;5089873;28;20048;-50
2022/04/20 05:43:23;;;;;;;8.23;3.97;;;;;;;17.05;42.96;101602.19;5090385;28;20036;-51
2022/04/20 05:45:53;;;;;;;10.65;4.40;;;;;;;17.27;42.48;101593.69;5078328;28;20040;-51
2022/04/20 05:48:32;;;;;;;11.07;3.92;;;;;;;16.95;42.84;101591.84;5071365;28;20056;-52
2022/04/20 05:50:58;;;;;;;6.47;4.10;;;;;;;17.26;42.33;101592.03;5068111;28;20060;-50
2022/04/20 05:53:27;;;;;;;10.77;4.20;;;;;;;17.31;41.90;101586.78;5090519;28;20115;-50
2022/04/20 05:55:53;;;;;;;7.05;3.67;;;;;;;17.28;42.11;101589.94;5072553;28;20030;-54
2022/04/20 05:58:19;;;;;;;9.70;3.85;;;;;;;17.43;41.72;101587.72;5067592;28;20055;-50
2022/04/20 06:00:45;;;;;;;;;;;;;;;17.23;42.11;101582.50;5080250;28;20100;-52
2022/04/20 06:03:29;;;;;;;6.32;3.95;;;;;;;17.31;41.86;101587.63;5091745;28;19965;-51
2022/04/20 06:06:03;;;;;;;9.38;4.28;;;;;;;15.63;44.94;101586.66;5071161;28;20051;-52
2022/04/20 06:08:42;;;;;;;8.98;3.67;;;;;;;15.78;44.74;101582.88;5084097;28;20406;-55
2022/04/20 06:11:17;;;;;;;10.07;4.15;;;;;;;15.76;44.99;101584.97;5071382;28;20075;-55
2022/04/20 06:13:43;;;;;;;8.27;4.07;;;;;;;15.94;44.52;101578.91;5072810;28;20041;-50
2022/04/20 06:16:21;;;;;;;10.25;4.10;;;;;;;15.82;45.16;101584.13;5088955;28;20096;-51
2022/04/20 06:18:52;;;;;;;7.15;3.90;;;;;;;15.85;45.29;101581.00;5059173;28;20033;-53
2022/04/20 06:21:26;;;;;;;6.95;4.20;;;;;;;15.93;45.30;101584.53;5074761;28;20037;-56
2022/04/20 06:24:07;;;;;;;8.63;4.03;;;;;;;15.96;45.04;101578.72;5079048;28;20087;-51
2022/04/20 06:26:42;;;;;;;10.55;3.83;;;;;;;16.06;45.23;101584.47;5077130;28;20041;-53
2022/04/20 06:29:27;;;;;;;7.50;3.75;;;;;;;16.12;44.85;101583.59;5090646;28;20046;-53
2022/04/20 06:32:02;;;;;;;13.02;4.93;;;;;;;16.38;44.98;101591.81;5064764;28;20024;-54
2022/04/20 06:34:37;;;;;;;10.50;4.28;;;;;;;16.43;44.68;101592.81;5086749;28;20100;-53
2022/04/20 06:37:28;;;;;;;8.52;3.22;;;;;;;16.32;44.44;101588.09;5075223;28;20043;-55
2022/04/20 06:40:06;;;;;;;5.57;3.65;;;;;;;16.44;44.13;101588.22;5073713;28;20036;-55
2022/04/20 06:42:34;;;;;;;12.05;3.53;;;;;;;16.48;43.87;101592.16;5070234;28;20112;-55
2022/04/20 06:45:23;;;;;;;11.35;3.40;;;;;;;16.66;43.90;101594.13;5080373;28;20087;-53
2022/04/20 06:48:21;;;;;;;9.55;3.50;;;;;;;16.72;44.06;101593.25;5062398;28;20082;-55
2022/04/20 06:50:52;;;;;;;6.80;3.25;;;;;;;16.87;43.50;101594.81;5083422;28;20025;-53
2022/04/20 06:59:10;;;;;;;6.28;3.75;;;;;;;16.94;43.79;101592.88;5073718;28;20029;-53
2022/04/20 07:01:53;;;;;;;10.00;3.83;;;;;;;17.13;44.27;101587.59;5073148;28;20068;-54
2022/04/20 07:04:37;;;;;;;7.88;3.22;;;;;;;17.21;44.04;101595.41;5087142;28;20128;-56
2022/04/20 07:07:11;;;;;;;5.03;3.50;;;;;;;17.11;43.53;101605.91;5060522;28;20036;-54
2022/04/20 07:09:59;;;;;;;5.53;3.42;;;;;;;17.33;42.81;101601.75;5068666;28;20021;-53
2022/04/20 07:12:38;;;;;;;10.20;3.97;;;;;;;17.32;42.62;101597.41;5066455;28;20031;-55
2022/04/20 07:15:04;;;;;;;8.27;3.40;;;;;;;17.33;42.23;101598.22;5060762;28;20033;-54
2022/04/20 07:17:29;;;;;;;6.95;3.30;;;;;;;17.28;42.71;101590.75;5074637;28;20043;-54
2022/04/20 07:20:13;;;;;;;6.97;3.55;;;;;;;17.36;42.16;101597.75;5057239;28;20029;-54
2022/04/20 07:22:53;;;;;;;7.20;4.10;;;;;;;17.55;42.75;101592.38;5063829;28;20033;-55
2022/04/20 07:25:25;;;;;;;7.80;3.33;;;;;;;17.62;42.19;101593.97;5064259;28;20108;-52
2022/04/20 07:28:09;;;;;;;12.43;3.78;;;;;;;17.71;42.16;101589.09;5060255;28;20070;-56
2022/04/20 07:30:54;;;;;;;7.90;3.50;;;;;;;17.75;41.71;101595.69;5065806;28;20094;-54
2022/04/20 07:33:45;;;;;;;7.95;4.07;;;;;;;17.94;41.54;101594.88;5062986;28;20068;-55
2022/04/20 07:36:21;;;;;;;7.45;3.50;;;;;;;17.95;41.65;101600.06;5074508;28;20035;-54
2022/04/20 07:38:56;;;;;;;6.60;3.40;;;;;;;17.94;41.51;101602.97;5063289;28;20177;-52
2022/04/20 07:41:42;;;;;;;9.65;3.40;;;;;;;18.15;41.79;101607.97;5063924;28;20108;-56
2022/04/20 07:44:33;;;;;;;7.53;3.20;;;;;;;18.09;41.60;101613.44;5071336;28;20109;-53
2022/04/20 07:47:07;;;;;;;9.00;3.45;;;;;;;18.32;41.95;101615.47;5063074;28;20041;-51
2022/04/20 07:52:55;;;;;;;6.60;3.13;;;;;;;18.35;39.83;101620.41;5064418;28;20040;-52
2022/04/20 07:55:37;;;;;;;10.15;3.33;;;;;;;18.60;40.24;101623.00;5068358;28;20025;-51
2022/04/20 07:58:12;;;;;;;8.10;2.88;;;;;;;18.51;39.69;101621.66;5058248;28;20029;-56
2022/04/20 08:00:58;;;;;;;7.45;3.30;;;;;;;18.75;39.38;101617.16;5056161;28;20071;-54
2022/04/20 08:03:42;;;;;;;6.73;2.83;;;;;;;18.83;39.49;101623.28;5057092;28;20072;-55
2022/04/20 08:06:09;;;;;;;4.73;2.90;;;;;;;18.88;38.52;101615.28;5076899;28;20286;-54
2022/04/20 08:08:38;;;;;;;7.07;2.93;;;;;;;18.97;39.22;101622.03;5062724;28;20266;-54
2022/04/20 08:11:04;;;;;;;7.65;3.63;;;;;;;19.00;38.80;101626.16;5061512;28;20275;-54
2022/04/20 08:16:32;;;;;;;6.07;2.97;;;;;;;19.22;38.41;101628.31;5080164;28;20326;-55
2022/04/20 08:19:18;;;;;;;6.00;3.27;;;;;;;19.06;38.82;101620.66;5068972;28;20290;-55
2022/04/20 08:21:55;;;;;;;7.80;3.60;;;;;;;19.28;39.83;101622.78;5057906;28;20289;-51
2022/04/20 08:24:21;;;;;;;12.00;3.30;;;;;;;19.55;38.92;101625.03;5075128;28;20273;-54
2022/04/20 08:26:47;;;;;;;6.40;3.35;;;;;;;19.62;37.42;101630.34;5061085;28;20278;-55
2022/04/20 08:29:12;;;;;;;6.47;3.20;;;;;;;19.52;36.66;101627.41;5085454;28;20032;-49
2022/04/20 08:31:38;;;;;;;8.13;3.43;;;;;;;19.61;36.16;101637.69;5068019;28;20057;-52
2022/04/20 08:34:04;;;;;;;8.70;3.45;;;;;;;19.72;36.20;101638.72;5086059;28;20040;-53
2022/04/20 08:36:30;;;;;;;7.78;3.60;;;;;;;19.87;36.98;101640.09;5052888;28;20061;-53
2022/04/20 08:38:55;;;;;;;20.30;3.45;;;;;;;20.12;36.65;101639.00;5059616;28;20044;-54
2022/04/20 08:41:21;;;;;;;6.15;3.20;;;;;;;20.17;36.70;101639.97;5080595;28;20084;-52
2022/04/20 08:43:46;;;;;;;4.63;2.97;;;;;;;20.21;35.93;101632.16;5069496;28;20048;-53
2022/04/20 08:46:12;;;;;;;6.05;3.03;;;;;;;20.27;36.22;101628.47;5060181;28;20037;-55
2022/04/20 08:48:38;;;;;;;5.67;2.90;;;;;;;20.49;36.11;101635.94;5065862;28;20049;-51
2022/04/20 08:51:06;;;;;;;7.35;3.30;;;;;;;20.63;36.42;101634.56;5058562;28;20057;-54
2022/04/20 08:53:31;;;;;;;6.90;3.13;;;;;;;20.83;35.77;101632.50;5068151;28;20109;-54
2022/04/20 08:58:46;;;;;;;9.10;2.53;;;;;;;20.98;35.01;101627.31;5072339;28;20045;-55
2022/04/20 09:01:13;;;;;;;3.83;2.47;;;;;;;21.03;33.87;101624.69;5075729;28;20292;-57
2022/04/20 09:03:39;;;;;;;7.07;3.00;;;;;;;21.11;34.64;101628.91;5075950;28;20290;-53
2022/04/20 09:06:07;;;;;;;8.23;2.90;;;;;;;21.39;34.41;101632.59;5077702;28;20276;-54
2022/04/20 09:08:34;;;;;;;9.27;2.57;;;;;;;21.37;33.41;101628.47;5059185;28;20052;-54
2022/04/20 09:11:00;;;;;;;;;;;;;;;21.59;32.55;101634.78;5077774;28;20337;-55
2022/04/20 09:13:41;;;;;;;5.03;2.33;;;;;;;21.74;32.39;101627.94;5083097;28;19920;-54
2022/04/20 09:16:09;;;;;;;4.20;1.80;;;;;;;22.23;31.67;101623.63;5096843;28;20096;-52
2022/04/20 09:18:36;;;;;;;5.37;2.23;;;;;;;22.87;30.92;101622.91;5090031;28;20293;-51
2022/04/20 09:21:12;;;;;;;6.80;2.37;;;;;;;23.39;29.93;101627.97;5076715;28;20286;-55
2022/04/20 09:23:38;;;;;;;5.33;2.37;;;;;;;23.97;29.56;101624.41;5092813;28;20041;-54
2022/04/20 09:26:11;;;;;;;7.50;1.90;;;;;;;24.48;29.39;101627.34;5079791;28;20032;-54
2022/04/20 09:28:42;;;;;;;5.17;2.10;;;;;;;25.28;27.91;101616.16;5089605;28;20091;-54
2022/04/20 09:31:10;;;;;;;5.50;2.00;;;;;;;25.48;26.71;101629.00;5088691;28;20028;-53
2022/04/20 09:33:44;;;;;;;4.57;2.10;;;;;;;25.69;26.38;101624.28;5080617;28;20036;-52
2022/04/20 09:36:13;;;;;;;3.30;1.93;;;;;;;26.11;26.13;101622.19;5063895;28;20025;-54
2022/04/20 09:38:41;;;;;;;7.17;2.67;;;;;;;26.68;25.40;101612.81;5089166;28;20037;-54
2022/04/20 09:41:09;;;;;;;6.77;2.57;;;;;;;27.25;25.27;101620.56;5076513;28;20029;-53
2022/04/20 09:43:36;;;;;;;5.07;2.00;;;;;;;27.29;24.31;101616.13;5092114;28;20043;-55
2022/04/20 09:49:05;;;;;;;4.33;1.80;;;;;;;28.42;23.44;101613.09;5086428;28;19916;-53
2022/04/20 09:51:39;;;;;;;2.90;1.75;;;;;;;28.95;23.18;101605.66;5091212;28;20037;-53
2022/04/20 09:54:23;;;;;;;8.00;2.53;;;;;;;29.21;22.54;101619.78;5079160;28;20047;-52
2022/04/20 09:57:10;;;;;;;6.80;2.10;;;;;;;29.45;22.61;101625.16;5087375;28;20052;-53
2022/04/20 09:59:56;;;;;;;14.70;2.17;;;;;;;29.89;22.57;101624.81;5090816;28;20052;-56
2022/04/20 10:02:21;;;;;;;6.87;2.20;;;;;;;29.74;21.60;101626.78;5059321;28;20036;-54
2022/04/20 10:04:48;;;;;;;;;;;;;;;30.01;21.61;101622.38;5062986;28;20047;-51
2022/04/20 10:07:13;;;;;;;6.63;1.97;;;;;;;30.45;20.95;101622.75;5087211;28;20055;-54
2022/04/20 10:09:39;;;;;;;4.80;1.57;;;;;;;30.52;20.90;101613.22;5077882;28;20835;-52
2022/04/20 10:12:06;;;;;;;5.57;1.80;;;;;;;30.69;20.16;101618.06;5064402;28;20028;-53
2022/04/20 10:17:21;;;;;;;2.90;1.77;;;;;;;31.53;19.35;101617.53;5060899;28;20048;-57
2022/04/20 10:19:48;;;;;;;3.60;1.80;;;;;;;31.86;19.23;101619.91;5059973;28;20108;-58
2022/04/20 10:22:17;;;;;;;7.87;2.10;;;;;;;31.97;18.82;101612.13;5055684;28;20044;-56
2022/04/20 10:24:47;;;;;;;4.05;1.80;;;;;;;31.45;18.86;101608.09;5060558;28;20096;-54
2022/04/20 10:27:18;;;;;;;3.85;1.80;;;;;;;31.85;18.87;101602.53;5063670;28;20029;-51
2022/04/20 10:29:55;;;;;;;5.03;2.20;;;;;;;32.28;18.56;101600.06;5060771;28;20030;-57
2022/04/20 10:32:51;;;;;;;4.97;1.80;;;;;;;32.44;18.45;101601.25;5067726;28;20029;-53
2022/04/20 10:35:21;;;;;;;3.55;1.88;;;;;;;33.18;17.92;101594.88;5062959;28;20037;-55
2022/04/20 10:38:11;;;;;;;4.90;1.90;;;;;;;33.20;17.70;101591.78;5063560;28;20045;-54
2022/04/20 10:41:12;;;;;;;6.65;1.77;;;;;;;33.40;17.65;101585.50;5061401;28;20059;-55
2022/04/20 10:43:44;;;;;;;4.80;1.80;;;;;;;33.81;17.61;101585.91;5071092;28;20033;-56
2022/04/20 10:46:16;;;;;;;4.03;1.80;;;;;;;33.94;17.39;101583.22;5063506;28;20037;-54
2022/04/20 10:48:49;;;;;;;3.25;1.65;;;;;;;33.95;17.38;101577.31;5067903;28;20056;-54
2022/04/20 10:51:18;;;;;;;2.95;1.63;;;;;;;33.67;17.47;101577.03;5065319;28;20044;-58
2022/04/20 10:53:47;;;;;;;5.45;1.95;;;;;;;34.08;17.20;101582.97;5065141;28;20065;-58
2022/04/20 10:56:14;;;;;;;7.28;1.90;;;;;;;34.07;16.72;101579.38;5068695;28;20021;-55
2022/04/20 10:59:08;;;;;;;5.05;1.73;;;;;;;34.91;16.50;101574.78;5066392;28;20086;-56
2022/04/20 11:01:59;;;;;;;2.92;1.70;;;;;;;34.72;16.71;101592.81;5071981;28;20057;-54
2022/04/20 11:04:37;;;;;;;3.20;1.40;;;;;;;35.15;15.92;101584.31;5068881;28;20033;-57
2022/04/20 11:07:03;;;;;;;6.47;1.73;;;;;;;35.71;15.65;101574.56;5068520;28;20032;-58
2022/04/20 11:09:45;;;;;;;5.45;2.15;;;;;;;35.93;15.60;101578.78;5075531;28;20036;-57
2022/04/20 11:21:17;;;;;;;2.08;1.33;;;;;;;38.28;13.87;101566.16;5085718;28;20070;-57
2022/04/20 11:23:53;;;;;;;3.03;1.40;;;;;;;38.40;14.37;101565.19;5078689;28;20040;-57
2022/04/20 11:26:19;;;;;;;;;;;;;;;37.33;14.90;101556.97;5063823;28;20090;-56
2022/04/20 11:28:45;;;;;;;3.30;1.88;;;;;;;37.21;14.81;101550.34;5086308;28;19912;-58
2022/04/20 11:31:12;;;;;;;6.85;1.90;;;;;;;37.55;14.66;101556.31;5073682;28;20040;-58
2022/04/20 11:33:38;;;;;;;3.10;1.77;;;;;;;37.49;14.55;101562.53;5085823;28;20071;-55
2022/04/20 11:36:04;;;;;;;2.05;1.10;;;;;;;37.54;14.66;101554.69;5074879;28;20112;-57
2022/04/20 11:38:41;;;;;;;4.95;1.40;;;;;;;38.06;14.63;101557.38;5088068;28;20047;-58
2022/04/20 11:41:11;;;;;;;4.15;1.52;;;;;;;38.81;13.57;101557.16;5073899;28;20037;-56
2022/04/20 11:43:38;;;;;;;4.75;1.50;;;;;;;38.78;14.48;101559.91;5089320;28;20047;-57
2022/04/20 11:46:08;;;;;;;5.05;1.55;;;;;;;38.99;13.17;101560.28;5059811;28;20043;-59
2022/04/20 11:48:35;;;;;;;5.68;2.10;;;;;;;39.40;13.01;101548.50;5085651;28;20048;-56
2022/04/20 11:51:02;;;;;;;5.50;2.20;;;;;;;39.22;13.76;101541.81;5083763;28;20088;-56
2022/04/20 11:53:38;;;;;;;9.38;2.72;;;;;;;39.70;13.13;101541.31;5078973;28;20076;-59
2022/04/20 11:56:17;;;;;;;4.22;1.98;;;;;;;39.65;13.41;101538.81;5076813;28;20040;-59
2022/04/20 11:58:53;;;;;;;6.25;2.72;;;;;;;40.15;12.84;101528.22;5085961;28;20115;-58
2022/04/20 12:01:22;;;;;;;3.30;1.83;;;;;;;39.78;13.87;101523.41;5085337;28;20104;-57
2022/04/20 12:03:50;;;;;;;5.22;1.67;;;;;;;40.21;13.73;101519.47;5076180;28;20036;-57
2022/04/20 12:06:16;;;;;;;5.15;1.75;;;;;;;39.66;14.25;101526.44;5064595;28;20048;-57
2022/04/20 12:08:44;;;;;;;1.80;1.20;;;;;;;39.28;13.99;101518.75;5071283;28;20025;-57
2022/04/20 12:11:11;;;;;;;4.05;1.67;;;;;;;38.94;14.51;101513.06;5073698;28;20078;-60
2022/04/20 12:13:39;;;;;;;3.88;1.80;;;;;;;38.52;14.47;101516.75;5068312;28;20044;-58
2022/04/20 12:16:08;;;;;;;6.72;3.05;;;;;;;38.83;13.87;101515.66;5073845;28;20078;-59
2022/04/20 12:18:40;;;;;;;7.03;1.58;;;;;;;39.42;14.02;101504.19;5067635;28;20098;-59
2022/04/20 12:21:43;;;;;;;4.40;1.23;;;;;;;39.62;14.05;101504.03;5065435;28;20033;-58
2022/04/20 12:24:30;;;;;;;7.03;1.83;;;;;;;39.16;14.40;101518.97;5065721;28;20029;-57
2022/04/20 12:26:57;;;;;;;4.68;1.80;;;;;;;39.48;13.92;101515.84;5072520;28;20033;-56